Time;durP1;ratioP1;P1;durP2;ratioP2;P2;SDS_P1;SDS_P2;PMS_P1;PMS_P2;Temp;Humidity;BMP_temperature;BMP_pressure;BME280_temperature;BME280_humidity;BME280_pressure;Samples;Min_cycle;Max_cycle;Signal;HPM_P1;HPM_P2
2024/01/16 00:00:39;;;;;;;24.77;3.28;;;26.10;99.20;;;;;;4949177;28;20495;-72
2024/01/16 00:03:07;;;;;;;14.02;2.63;;;26.20;98.70;;;;;;4939334;28;20378;-73
2024/01/16 00:05:35;;;;;;;18.70;3.15;;;26.30;99.00;;;;;;4950300;28;20109;-72
2024/01/16 00:08:03;;;;;;;13.50;2.55;;;26.10;98.50;;;;;;4937983;29;20035;-72
2024/01/16 00:10:35;;;;;;;16.48;2.80;;;26.00;98.30;;;;;;4934705;28;20047;-72
2024/01/16 00:13:08;;;;;;;20.67;3.22;;;25.80;99.20;;;;;;4943977;29;20035;-72
2024/01/16 00:15:37;;;;;;;18.25;3.63;;;25.70;99.60;;;;;;4944333;28;20043;-72
2024/01/16 00:18:05;;;;;;;14.75;2.95;;;25.80;99.10;;;;;;4941366;28;20118;-71
2024/01/16 00:20:33;;;;;;;12.48;3.22;;;25.90;99.00;;;;;;4946358;28;20035;-70
2024/01/16 00:23:01;;;;;;;25.90;3.67;;;25.90;98.60;;;;;;4949067;28;20469;-71
2024/01/16 00:25:29;;;;;;;15.75;2.60;;;25.80;98.70;;;;;;4935545;29;20023;-70
2024/01/16 00:27:58;;;;;;;14.10;2.60;;;25.60;99.60;;;;;;4962516;28;20039;-71
2024/01/16 00:30:26;;;;;;;17.42;2.88;;;25.20;99.30;;;;;;4933812;29;20102;-71
2024/01/16 00:32:54;;;;;;;15.75;3.13;;;24.90;99.90;;;;;;4955864;28;20024;-71
2024/01/16 00:35:22;;;;;;;15.93;2.70;;;24.80;99.90;;;;;;4939850;29;20031;-68
2024/01/16 00:37:54;;;;;;;17.50;3.80;;;25.10;99.90;;;;;;4940459;28;20039;-68
2024/01/16 00:40:22;;;;;;;15.25;2.55;;;25.20;99.90;;;;;;4933402;29;20126;-67
2024/01/16 00:42:50;;;;;;;15.02;2.85;;;24.90;99.90;;;;;;4953551;28;20489;-68
2024/01/16 00:45:18;;;;;;;21.80;3.70;;;24.00;99.90;;;;;;4936162;29;20126;-68
2024/01/16 00:47:46;;;;;;;13.75;2.05;;;23.30;99.90;;;;;;4946566;28;20044;-68
2024/01/16 00:50:14;;;;;;;11.40;2.13;;;22.90;99.90;;;;;;4933787;29;20035;-68
2024/01/16 00:52:42;;;;;;;14.43;2.05;;;22.70;99.90;;;;;;4933266;29;20083;-69
2024/01/16 00:55:10;;;;;;;12.32;2.00;;;22.60;99.90;;;;;;4933801;29;20103;-69
2024/01/16 00:57:38;;;;;;;7.30;2.00;;;22.70;99.90;;;;;;4935139;29;20039;-68
2024/01/16 01:00:07;;;;;;;10.80;1.58;;;23.00;99.90;;;;;;4939264;29;20032;-69
2024/01/16 01:02:35;;;;;;;13.50;1.83;;;23.50;99.90;;;;;;4933589;29;20091;-69
2024/01/16 01:05:04;;;;;;;8.20;2.17;;;24.10;99.90;;;;;;4940252;29;20028;-69
2024/01/16 01:07:32;;;;;;;12.25;2.88;;;24.50;99.90;;;;;;4937258;29;20034;-68
2024/01/16 01:10:02;;;;;;;13.13;2.35;;;24.70;99.90;;;;;;4934142;29;20480;-69
2024/01/16 01:12:30;;;;;;;8.35;1.52;;;24.80;99.90;;;;;;4938078;29;20083;-69
2024/01/16 01:14:58;;;;;;;6.47;1.58;;;25.10;99.90;;;;;;4939724;28;20032;-69
2024/01/16 01:17:28;;;;;;;9.25;1.40;;;25.90;99.90;;;;;;4956353;28;20028;-70
2024/01/16 01:19:55;;;;;;;9.10;1.58;;;26.60;99.90;;;;;;4938728;28;20040;-69
2024/01/16 01:22:24;;;;;;;4.85;1.13;;;27.00;99.90;;;;;;4938446;28;20035;-69
2024/01/16 01:24:52;;;;;;;12.68;2.67;;;27.40;99.60;;;;;;4954537;28;20031;-69
2024/01/16 01:27:20;;;;;;;15.30;3.28;;;27.50;98.30;;;;;;4941737;29;20118;-69
2024/01/16 01:29:48;;;;;;;15.88;2.97;;;27.10;97.90;;;;;;4933876;28;20563;-67
2024/01/16 01:32:16;;;;;;;22.55;3.30;;;26.90;97.80;;;;;;4942385;29;20114;-68
2024/01/16 01:34:46;;;;;;;11.88;2.20;;;26.70;98.60;;;;;;4938991;29;20035;-68
2024/01/16 01:37:15;;;;;;;8.52;2.00;;;26.60;98.60;;;;;;4944489;29;20043;-68
2024/01/16 01:39:43;;;;;;;15.07;2.40;;;26.60;99.20;;;;;;4959607;28;20086;-68
2024/01/16 01:42:11;;;;;;;12.93;2.55;;;26.60;99.00;;;;;;4936767;28;20047;-68
2024/01/16 01:44:39;;;;;;;16.52;2.40;;;26.80;98.90;;;;;;4944362;28;20043;-66
2024/01/16 01:47:08;;;;;;;14.07;2.15;;;27.40;98.60;;;;;;4954625;28;20058;-68
2024/01/16 01:49:37;;;;;;;15.38;2.70;;;27.90;97.30;;;;;;4945240;29;20034;-67
2024/01/16 01:52:08;;;;;;;17.40;2.50;;;28.10;97.60;;;;;;4945291;28;20436;-67
2024/01/16 01:54:38;;;;;;;14.20;2.58;;;28.00;97.80;;;;;;4942627;28;20168;-70
2024/01/16 01:57:10;;;;;;;14.18;2.45;;;27.80;97.40;;;;;;4954484;28;20033;-68
2024/01/16 01:59:38;;;;;;;16.80;3.03;;;27.80;97.30;;;;;;4936071;29;20035;-68
2024/01/16 02:02:07;;;;;;;12.75;2.38;;;27.60;97.50;;;;;;4956221;28;20397;-68
2024/01/16 02:04:37;;;;;;;13.75;2.45;;;27.60;97.60;;;;;;4949052;28;20126;-69
2024/01/16 02:07:06;;;;;;;19.70;2.47;;;27.20;98.00;;;;;;4941228;29;20460;-68
2024/01/16 02:09:35;;;;;;;11.55;1.85;;;27.00;98.60;;;;;;4938094;28;20016;-68
2024/01/16 02:12:03;;;;;;;8.80;1.70;;;27.00;98.90;;;;;;4936447;29;20032;-67
2024/01/16 02:14:33;;;;;;;10.68;2.03;;;26.80;99.40;;;;;;4948709;28;20130;-69
2024/01/16 02:17:12;;;;;;;9.05;2.25;;;26.50;99.30;;;;;;4938091;29;20102;-68
2024/01/16 02:19:42;;;;;;;11.35;2.33;;;26.20;99.90;;;;;;4936388;29;20110;-68
2024/01/16 02:22:25;;;;;;;17.48;3.13;;;26.10;99.90;;;;;;4934712;29;20087;-68
2024/01/16 02:24:53;;;;;;;16.80;2.63;;;26.10;99.90;;;;;;4938054;29;20148;-68
2024/01/16 02:27:25;;;;;;;21.63;3.40;;;25.90;99.90;;;;;;4938908;29;20513;-67
2024/01/16 02:29:54;;;;;;;15.20;2.58;;;25.80;99.90;;;;;;4948200;28;20039;-68
2024/01/16 02:32:22;;;;;;;22.38;4.25;;;25.70;99.90;;;;;;4944944;28;20038;-71
2024/01/16 02:34:53;;;;;;;20.55;2.90;;;25.90;99.90;;;;;;4947303;28;20043;-72
2024/01/16 02:37:24;;;;;;;16.20;2.92;;;25.90;99.90;;;;;;4952833;28;20392;-72
2024/01/16 02:39:52;;;;;;;10.63;2.30;;;25.90;99.90;;;;;;4940913;28;20441;-71
2024/01/16 02:42:20;;;;;;;23.27;4.07;;;25.90;99.90;;;;;;4935670;28;20433;-72
2024/01/16 02:44:48;;;;;;;15.75;2.70;;;25.70;99.90;;;;;;4940522;28;20062;-72
2024/01/16 02:47:16;;;;;;;14.55;2.47;;;25.70;99.90;;;;;;4934267;28;20039;-73
2024/01/16 02:49:45;;;;;;;14.05;2.33;;;25.70;99.90;;;;;;4940742;28;20036;-71
2024/01/16 02:52:13;;;;;;;16.20;2.85;;;25.70;99.90;;;;;;4945312;28;20051;-72
2024/01/16 02:54:41;;;;;;;13.90;2.83;;;25.50;99.90;;;;;;4942447;28;20039;-71
2024/01/16 02:57:10;;;;;;;13.32;2.78;;;25.50;99.90;;;;;;4944960;29;20488;-72
2024/01/16 02:59:38;;;;;;;11.88;2.25;;;25.60;99.90;;;;;;4939682;29;20537;-71
2024/01/16 03:02:08;;;;;;;19.88;2.65;;;25.60;99.90;;;;;;4941964;29;20131;-71
2024/01/16 03:04:38;;;;;;;17.48;2.60;;;25.60;99.90;;;;;;4942004;28;20039;-71
2024/01/16 03:07:06;;;;;;;15.00;2.75;;;25.50;99.90;;;;;;4940849;29;20485;-72
2024/01/16 03:09:34;;;;;;;11.07;2.47;;;25.30;99.90;;;;;;4943147;28;20059;-71
2024/01/16 03:12:05;;;;;;;10.95;1.85;;;25.10;99.90;;;;;;4936273;29;20031;-68
2024/01/16 03:14:34;;;;;;;12.63;1.90;;;24.60;99.90;;;;;;4936192;29;20062;-68
2024/01/16 03:17:06;;;;;;;13.55;2.70;;;24.00;99.90;;;;;;4936477;29;20119;-68
2024/01/16 03:19:35;;;;;;;10.15;2.00;;;23.90;99.90;;;;;;4936283;29;20038;-68
2024/01/16 03:22:04;;;;;;;13.88;2.45;;;23.50;99.90;;;;;;4936428;29;20052;-68
2024/01/16 03:24:32;;;;;;;17.85;2.47;;;23.20;99.90;;;;;;4943760;29;20032;-68
2024/01/16 03:27:04;;;;;;;15.18;2.20;;;23.20;99.90;;;;;;4943312;29;20574;-69
2024/01/16 03:29:33;;;;;;;14.63;2.70;;;23.40;99.90;;;;;;4935225;29;20110;-69
2024/01/16 03:32:03;;;;;;;16.63;3.00;;;23.60;99.90;;;;;;4936506;29;20115;-69
2024/01/16 03:34:32;;;;;;;9.93;2.38;;;23.70;99.90;;;;;;4945534;29;20028;-69
2024/01/16 03:37:00;;;;;;;14.32;2.65;;;23.80;99.90;;;;;;4961144;28;20039;-69
2024/01/16 03:39:28;;;;;;;14.70;2.83;;;23.90;99.90;;;;;;4934829;29;20027;-68
2024/01/16 03:41:56;;;;;;;19.65;2.80;;;23.90;99.90;;;;;;4934100;29;20040;-70
2024/01/16 03:44:25;;;;;;;14.77;3.28;;;24.10;99.90;;;;;;4956917;28;20086;-69
2024/01/16 03:46:53;;;;;;;21.70;3.17;;;24.30;99.90;;;;;;4934722;29;20111;-69
2024/01/16 03:49:22;;;;;;;16.23;2.72;;;24.50;99.90;;;;;;4952956;28;20023;-69
2024/01/16 03:51:51;;;;;;;17.90;3.13;;;24.60;99.90;;;;;;4942754;28;20389;-69
2024/01/16 03:54:19;;;;;;;17.85;2.53;;;24.70;99.90;;;;;;4936148;29;20038;-68
2024/01/16 03:56:47;;;;;;;16.02;2.80;;;24.90;99.90;;;;;;4934748;28;20082;-69
2024/01/16 03:59:15;;;;;;;16.15;2.30;;;25.10;99.90;;;;;;4927381;28;20103;-67
2024/01/16 04:01:45;;;;;;;16.35;2.28;;;25.40;99.90;;;;;;4937209;29;20043;-69
2024/01/16 04:04:13;;;;;;;17.20;3.10;;;25.50;99.90;;;;;;4941602;29;20037;-69
2024/01/16 04:06:41;;;;;;;13.93;2.30;;;25.50;99.90;;;;;;4938338;28;20035;-69
2024/01/16 04:09:14;;;;;;;18.65;3.33;;;25.70;99.90;;;;;;4938311;29;20119;-69
2024/01/16 04:11:42;;;;;;;17.30;2.53;;;25.90;99.90;;;;;;4943852;29;20531;-68
2024/01/16 04:14:10;;;;;;;16.98;2.42;;;26.00;99.90;;;;;;4941110;29;20069;-69
2024/01/16 04:16:40;;;;;;;15.98;2.58;;;26.20;99.90;;;;;;4941763;28;20495;-68
2024/01/16 04:19:07;;;;;;;16.20;2.78;;;26.40;99.90;;;;;;4943647;29;20102;-69
2024/01/16 04:21:36;;;;;;;17.10;3.35;;;26.50;99.90;;;;;;4940325;28;20047;-69
2024/01/16 04:24:04;;;;;;;12.60;2.13;;;26.80;99.90;;;;;;4940540;29;20058;-68
2024/01/16 04:26:32;;;;;;;19.92;2.90;;;27.00;99.90;;;;;;4942567;28;20472;-69
2024/01/16 04:29:00;;;;;;;21.02;2.95;;;27.20;99.90;;;;;;4939595;28;20311;-69
2024/01/16 04:31:28;;;;;;;22.65;3.45;;;27.50;99.90;;;;;;4943713;29;20031;-69
2024/01/16 04:33:56;;;;;;;19.75;3.03;;;27.40;99.80;;;;;;4940134;28;20153;-69
2024/01/16 04:36:23;;;;;;;16.77;2.40;;;27.30;99.90;;;;;;4941141;28;20057;-69
2024/01/16 04:38:51;;;;;;;15.50;3.00;;;27.30;99.90;;;;;;4942508;28;20035;-69
2024/01/16 04:41:19;;;;;;;17.08;2.63;;;27.40;99.90;;;;;;4940002;28;20093;-68
2024/01/16 04:43:46;;;;;;;21.08;3.13;;;27.60;99.90;;;;;;4938873;28;20034;-69
2024/01/16 04:46:15;;;;;;;17.10;3.13;;;27.60;99.80;;;;;;4944324;28;20031;-69
2024/01/16 04:48:43;;;;;;;16.52;2.88;;;27.20;99.90;;;;;;4941220;29;20039;-68
2024/01/16 04:51:11;;;;;;;15.18;3.00;;;27.10;99.90;;;;;;4945624;28;20106;-69
2024/01/16 04:53:38;;;;;;;14.48;3.15;;;26.90;99.90;;;;;;4948841;28;20122;-68
2024/01/16 04:56:06;;;;;;;13.23;2.55;;;26.80;99.90;;;;;;4940015;29;20161;-69
2024/01/16 04:58:33;;;;;;;19.25;3.33;;;26.70;99.90;;;;;;4944368;29;20167;-70
2024/01/16 05:01:00;;;;;;;17.40;2.65;;;26.60;99.90;;;;;;4950749;28;20050;-68
2024/01/16 05:03:28;;;;;;;17.38;2.90;;;26.30;99.90;;;;;;4947527;28;20030;-69
2024/01/16 05:05:56;;;;;;;18.70;3.13;;;26.00;99.90;;;;;;4942430;29;20039;-70
2024/01/16 05:08:24;;;;;;;20.38;2.97;;;25.90;99.90;;;;;;4943455;28;20027;-69
2024/01/16 05:10:51;;;;;;;14.55;2.70;;;25.90;99.90;;;;;;4946062;28;20372;-68
2024/01/16 05:13:20;;;;;;;15.35;3.40;;;25.80;99.90;;;;;;4944805;28;20027;-69
2024/01/16 05:15:47;;;;;;;18.63;2.70;;;25.50;99.90;;;;;;4942705;29;20077;-69
2024/01/16 05:18:15;;;;;;;20.55;2.63;;;25.40;99.90;;;;;;4947030;28;20023;-69
2024/01/16 05:20:42;;;;;;;23.85;3.92;;;25.40;99.90;;;;;;4946474;29;20492;-69
2024/01/16 05:23:09;;;;;;;16.80;3.50;;;25.40;99.90;;;;;;4942832;29;20035;-69
2024/01/16 05:25:38;;;;;;;22.08;3.53;;;25.50;99.90;;;;;;4947962;29;20416;-67
2024/01/16 05:28:05;;;;;;;22.92;2.80;;;25.70;99.90;;;;;;4944721;28;20035;-69
2024/01/16 05:30:33;;;;;;;25.77;3.58;;;25.70;99.90;;;;;;4944420;28;20032;-69
2024/01/16 05:33:01;;;;;;;24.55;3.15;;;25.80;99.90;;;;;;4944343;28;20039;-68
2024/01/16 05:35:29;;;;;;;23.92;3.70;;;25.90;99.90;;;;;;4939751;29;20023;-69
2024/01/16 05:37:56;;;;;;;17.95;3.50;;;25.90;99.90;;;;;;4943094;28;20104;-68
2024/01/16 05:40:23;;;;;;;13.48;2.88;;;25.90;99.90;;;;;;4938799;29;20039;-69
2024/01/16 05:42:51;;;;;;;18.50;3.38;;;25.90;99.90;;;;;;4945359;29;20445;-70
2024/01/16 05:45:19;;;;;;;18.00;2.92;;;25.80;99.90;;;;;;4947637;28;20355;-68
2024/01/16 05:47:46;;;;;;;17.10;3.55;;;26.00;99.90;;;;;;4943946;28;20400;-68
2024/01/16 05:50:16;;;;;;;14.30;2.80;;;26.10;99.90;;;;;;4940832;28;20028;-68
2024/01/16 05:52:44;;;;;;;17.38;2.95;;;26.20;99.90;;;;;;4944735;28;20099;-68
2024/01/16 05:55:11;;;;;;;14.73;3.05;;;26.00;99.90;;;;;;4944278;28;20028;-67
2024/01/16 05:57:39;;;;;;;17.17;3.00;;;25.60;99.90;;;;;;4947334;28;20548;-67
2024/01/16 06:00:07;;;;;;;11.20;1.98;;;25.40;99.90;;;;;;4943047;28;20539;-68
2024/01/16 06:02:34;;;;;;;16.08;2.60;;;25.20;99.90;;;;;;4945399;28;20033;-68
2024/01/16 06:05:02;;;;;;;20.85;2.80;;;25.10;99.90;;;;;;4945646;28;20469;-69
2024/01/16 06:07:30;;;;;;;18.55;2.90;;;25.10;99.90;;;;;;4943147;28;20114;-68
2024/01/16 06:09:57;;;;;;;16.90;2.40;;;25.20;99.90;;;;;;4957503;28;20034;-68
2024/01/16 06:12:25;;;;;;;10.68;2.60;;;25.30;99.90;;;;;;4943441;28;20020;-68
2024/01/16 06:14:52;;;;;;;12.82;2.10;;;25.30;99.90;;;;;;4945432;28;20031;-68
2024/01/16 06:17:19;;;;;;;16.25;2.63;;;25.40;99.90;;;;;;4944177;28;20397;-68
2024/01/16 06:19:47;;;;;;;16.38;2.55;;;25.30;99.90;;;;;;4939108;28;20040;-70
2024/01/16 06:22:14;;;;;;;14.80;2.85;;;25.30;99.90;;;;;;4945058;29;20632;-69
2024/01/16 06:24:41;;;;;;;19.05;1.98;;;25.30;99.90;;;;;;4942862;28;20035;-69
2024/01/16 06:27:09;;;;;;;12.98;2.70;;;25.50;99.90;;;;;;4942390;29;20023;-70
2024/01/16 06:29:36;;;;;;;16.85;3.35;;;25.60;99.90;;;;;;4944140;28;20622;-69
2024/01/16 06:32:04;;;;;;;24.08;3.28;;;25.70;99.90;;;;;;4944799;28;20039;-69
2024/01/16 06:34:31;;;;;;;13.70;2.10;;;25.80;99.90;;;;;;4945098;28;20043;-68
2024/01/16 06:36:59;;;;;;;17.80;2.78;;;25.70;99.90;;;;;;4940523;28;20034;-69
2024/01/16 06:39:26;;;;;;;22.40;2.85;;;25.50;99.90;;;;;;4939239;29;20051;-68
2024/01/16 06:41:53;;;;;;;13.98;1.88;;;25.40;99.90;;;;;;4941434;28;20048;-69
2024/01/16 06:44:21;;;;;;;13.93;2.35;;;25.30;99.90;;;;;;4945593;28;20031;-69
2024/01/16 06:46:48;;;;;;;20.48;3.17;;;25.30;99.90;;;;;;4940938;29;20037;-69
2024/01/16 06:49:15;;;;;;;18.90;2.92;;;25.40;99.90;;;;;;4947443;28;20022;-71
2024/01/16 06:51:43;;;;;;;18.63;3.22;;;25.30;99.90;;;;;;4937618;29;20035;-70
2024/01/16 06:54:10;;;;;;;18.50;2.70;;;25.20;99.90;;;;;;4941551;28;20485;-69
2024/01/16 06:56:37;;;;;;;14.57;3.00;;;25.30;99.90;;;;;;4937007;29;21500;-69
2024/01/16 06:59:05;;;;;;;19.52;2.78;;;25.50;99.90;;;;;;4943906;28;20122;-69
2024/01/16 07:01:35;;;;;;;17.42;3.22;;;25.50;99.90;;;;;;4941845;29;20047;-69
2024/01/16 07:04:03;;;;;;;19.50;2.88;;;25.60;99.90;;;;;;4944407;28;20038;-69
2024/01/16 07:06:30;;;;;;;17.02;2.30;;;25.60;99.90;;;;;;4937729;28;20031;-71
2024/01/16 07:08:58;;;;;;;16.65;2.75;;;25.50;99.90;;;;;;4942153;28;20376;-69
2024/01/16 07:11:25;;;;;;;15.60;3.38;;;25.60;99.90;;;;;;4941935;28;20027;-69
2024/01/16 07:13:52;;;;;;;18.20;2.78;;;25.70;99.90;;;;;;4939289;28;20057;-69
2024/01/16 07:16:20;;;;;;;22.92;3.00;;;25.70;99.90;;;;;;4940174;28;20031;-70
2024/01/16 07:18:48;;;;;;;14.70;2.70;;;25.70;99.90;;;;;;4942961;28;20373;-68
2024/01/16 07:21:19;;;;;;;17.65;2.20;;;25.50;99.90;;;;;;4947224;28;20039;-68
2024/01/16 07:23:47;;;;;;;18.08;2.75;;;25.60;99.90;;;;;;4941379;29;20031;-69
2024/01/16 07:26:16;;;;;;;19.90;3.05;;;25.60;99.90;;;;;;4946738;28;20114;-69
2024/01/16 07:28:43;;;;;;;20.23;3.38;;;25.60;99.90;;;;;;4944669;29;20023;-69
2024/01/16 07:31:11;;;;;;;20.90;3.17;;;25.40;99.90;;;;;;4939539;29;20035;-69
2024/01/16 07:33:38;;;;;;;23.25;2.85;;;25.50;99.90;;;;;;4946153;28;20063;-68
2024/01/16 07:36:08;;;;;;;16.58;3.50;;;25.50;99.90;;;;;;4941449;28;20453;-68
2024/01/16 07:38:38;;;;;;;19.35;3.30;;;25.60;99.90;;;;;;4941111;29;20053;-69
2024/01/16 07:41:06;;;;;;;27.48;3.05;;;25.60;99.90;;;;;;4945945;29;20174;-69
2024/01/16 07:43:35;;;;;;;19.92;3.00;;;25.60;99.90;;;;;;4942347;29;20582;-69
2024/01/16 07:46:02;;;;;;;22.27;3.53;;;25.60;99.90;;;;;;4941701;28;20039;-69
2024/01/16 07:48:30;;;;;;;16.05;2.30;;;25.50;99.90;;;;;;4941815;28;20043;-69
2024/01/16 07:50:57;;;;;;;22.95;3.08;;;25.60;99.90;;;;;;4944017;29;20043;-69
2024/01/16 07:53:27;;;;;;;17.45;2.88;;;25.50;99.90;;;;;;4941457;28;20044;-70
2024/01/16 07:55:55;;;;;;;17.55;2.50;;;25.50;99.90;;;;;;4939297;28;20027;-70
2024/01/16 07:58:22;;;;;;;17.40;2.80;;;25.50;99.90;;;;;;4942845;29;20034;-69
2024/01/16 08:00:50;;;;;;;21.23;3.92;;;25.50;99.90;;;;;;4941143;28;20040;-69
2024/01/16 08:03:17;;;;;;;20.73;3.15;;;25.50;99.90;;;;;;4939423;29;20492;-69
2024/01/16 08:05:45;;;;;;;19.05;3.25;;;25.50;99.90;;;;;;4944108;29;20034;-69
2024/01/16 08:08:12;;;;;;;15.90;3.15;;;25.50;99.90;;;;;;4943080;28;20514;-69
2024/01/16 08:10:42;;;;;;;16.58;2.35;;;25.40;99.90;;;;;;4943462;28;20039;-69
2024/01/16 08:13:13;;;;;;;22.23;3.35;;;25.40;99.90;;;;;;4940667;28;20094;-69
2024/01/16 08:15:41;;;;;;;23.25;3.30;;;25.30;99.90;;;;;;4939938;28;20101;-70
2024/01/16 08:18:08;;;;;;;20.27;3.17;;;25.10;99.90;;;;;;4939017;28;20659;-72
2024/01/16 08:20:35;;;;;;;15.55;3.42;;;25.10;99.90;;;;;;4935836;28;20055;-70
2024/01/16 08:23:03;;;;;;;24.73;3.08;;;25.10;99.90;;;;;;4938631;28;20034;-70
2024/01/16 08:25:33;;;;;;;22.83;3.60;;;24.80;99.90;;;;;;4944164;28;20031;-69
2024/01/16 08:28:01;;;;;;;22.40;4.30;;;24.60;99.90;;;;;;4942671;28;20118;-70
2024/01/16 08:30:28;;;;;;;23.98;4.10;;;24.40;99.90;;;;;;4942295;28;20114;-70
2024/01/16 08:32:56;;;;;;;20.40;3.75;;;24.30;99.90;;;;;;4940110;28;20118;-69
2024/01/16 08:35:23;;;;;;;29.88;3.90;;;24.20;99.90;;;;;;4944322;28;20075;-69
2024/01/16 08:37:51;;;;;;;23.63;4.70;;;24.00;99.90;;;;;;4939277;28;20037;-69
2024/01/16 08:40:19;;;;;;;18.85;3.95;;;23.90;99.90;;;;;;4940108;28;20027;-69
2024/01/16 08:42:51;;;;;;;21.13;3.65;;;23.80;99.90;;;;;;4940710;29;20039;-70
2024/01/16 08:45:18;;;;;;;19.25;3.58;;;23.70;99.90;;;;;;4941290;28;20036;-69
2024/01/16 08:47:46;;;;;;;17.05;3.10;;;24.00;99.90;;;;;;4940273;28;20027;-70
2024/01/16 08:50:14;;;;;;;18.83;3.72;;;24.10;99.90;;;;;;4942080;29;20039;-70
2024/01/16 08:52:42;;;;;;;23.20;4.15;;;24.30;99.90;;;;;;4942560;28;20055;-70
2024/01/16 08:55:09;;;;;;;25.45;3.42;;;24.20;99.90;;;;;;4943287;29;20062;-69
2024/01/16 08:57:38;;;;;;;21.80;3.53;;;24.20;99.90;;;;;;4943927;28;20040;-69
2024/01/16 09:00:08;;;;;;;20.17;3.15;;;24.30;99.90;;;;;;4942232;29;20036;-69
2024/01/16 09:02:39;;;;;;;15.85;3.30;;;24.20;99.90;;;;;;4942854;28;20043;-69
2024/01/16 09:05:06;;;;;;;22.35;2.70;;;24.00;99.90;;;;;;4945952;28;21750;-69
2024/01/16 09:07:34;;;;;;;15.60;3.25;;;24.00;99.90;;;;;;4940266;28;20169;-69
2024/01/16 09:10:01;;;;;;;15.70;2.95;;;23.90;99.90;;;;;;4942935;28;20155;-69
2024/01/16 09:12:28;;;;;;;20.27;3.40;;;23.70;99.90;;;;;;4943506;28;20422;-70
2024/01/16 09:14:56;;;;;;;20.90;4.20;;;23.60;99.90;;;;;;4937303;28;20034;-70
2024/01/16 09:17:23;;;;;;;20.13;2.95;;;23.40;99.90;;;;;;4941025;28;20078;-69
2024/01/16 09:19:51;;;;;;;22.65;3.75;;;23.40;99.90;;;;;;4935336;29;20110;-69
2024/01/16 09:22:18;;;;;;;16.75;3.28;;;23.40;99.90;;;;;;4937708;29;20035;-69
2024/01/16 09:24:46;;;;;;;18.98;3.42;;;23.50;99.90;;;;;;4937098;28;20023;-69
2024/01/16 09:27:14;;;;;;;16.95;3.15;;;23.60;99.90;;;;;;4940025;28;20023;-70
2024/01/16 09:29:42;;;;;;;19.05;3.17;;;23.60;99.90;;;;;;4941457;28;20034;-69
2024/01/16 09:32:09;;;;;;;18.17;3.03;;;23.50;99.90;;;;;;4941863;28;20034;-69
2024/01/16 09:34:36;;;;;;;21.92;3.90;;;23.40;99.90;;;;;;4942141;28;20037;-69
2024/01/16 09:37:04;;;;;;;25.20;3.63;;;23.40;99.90;;;;;;4943097;28;20024;-69
2024/01/16 09:39:34;;;;;;;28.85;3.80;;;23.50;99.90;;;;;;4946864;28;20673;-68
2024/01/16 09:42:01;;;;;;;24.85;3.60;;;23.50;99.90;;;;;;4944090;28;20039;-70
2024/01/16 09:44:29;;;;;;;21.77;3.65;;;23.40;99.90;;;;;;4945836;28;20604;-69
2024/01/16 09:46:58;;;;;;;29.45;3.40;;;23.50;99.90;;;;;;4944156;28;20087;-70
2024/01/16 09:49:25;;;;;;;20.52;4.10;;;23.50;99.90;;;;;;4946695;28;20492;-69
2024/01/16 09:51:53;;;;;;;21.25;3.90;;;23.50;99.90;;;;;;4942853;28;20039;-70
2024/01/16 09:54:20;;;;;;;21.55;4.18;;;23.40;99.90;;;;;;4943288;28;20023;-69
2024/01/16 09:56:51;;;;;;;22.85;4.15;;;23.40;99.90;;;;;;4947401;28;20032;-70
2024/01/16 09:59:21;;;;;;;19.77;3.22;;;23.30;99.90;;;;;;4948208;29;20507;-69
2024/01/16 10:01:52;;;;;;;18.85;2.92;;;23.20;99.90;;;;;;4943858;28;20051;-70
2024/01/16 10:04:19;;;;;;;20.73;4.00;;;23.00;99.90;;;;;;4939998;29;20114;-69
2024/01/16 10:06:47;;;;;;;25.52;3.65;;;22.90;99.90;;;;;;4945665;28;20023;-70
2024/01/16 10:09:15;;;;;;;18.42;3.38;;;22.90;99.90;;;;;;4944407;29;20123;-70
2024/01/16 10:11:43;;;;;;;20.63;2.80;;;23.10;99.90;;;;;;4944248;29;20041;-70
2024/01/16 10:14:12;;;;;;;17.67;3.35;;;23.20;99.90;;;;;;4945035;29;20477;-71
2024/01/16 10:17:13;;;;;;;22.40;3.20;;;23.40;99.90;;;;;;4944006;28;20568;-71
2024/01/16 10:19:52;;;;;;;24.73;3.88;;;23.20;99.90;;;;;;4949170;28;20090;-71
2024/01/16 10:22:25;;;;;;;22.80;3.58;;;23.00;99.90;;;;;;4941842;29;20054;-71
2024/01/16 10:25:09;;;;;;;12.40;2.60;;;22.90;99.90;;;;;;4944621;29;20031;-70
2024/01/16 10:27:38;;;;;;;20.70;3.28;;;22.90;99.90;;;;;;4946275;28;20061;-71
2024/01/16 10:30:05;;;;;;;17.63;3.20;;;22.80;99.90;;;;;;4944584;29;20785;-71
2024/01/16 10:32:36;;;;;;;16.27;3.92;;;22.80;99.90;;;;;;4943416;28;20126;-70
2024/01/16 10:35:22;;;;;;;23.08;3.67;;;22.80;99.90;;;;;;4941055;28;20031;-70
2024/01/16 10:37:50;;;;;;;32.08;3.95;;;23.00;99.90;;;;;;4943259;28;20054;-70
2024/01/16 10:40:20;;;;;;;23.77;3.28;;;23.10;99.90;;;;;;4945226;28;20727;-70
2024/01/16 10:43:08;;;;;;;17.20;3.38;;;23.00;99.90;;;;;;4943555;28;20465;-70
2024/01/16 10:45:34;;;;;;;;;;;22.90;99.90;;;;;;4942066;28;20047;-70
2024/01/16 10:48:03;;;;;;;16.95;2.55;;;23.00;99.90;;;;;;4939980;28;19910;-69
2024/01/16 10:50:31;;;;;;;21.45;3.40;;;22.90;99.90;;;;;;4944184;28;20043;-70
2024/01/16 10:53:04;;;;;;;32.15;4.90;;;22.90;99.90;;;;;;4940957;28;20047;-70
2024/01/16 10:55:32;;;;;;;24.40;3.17;;;22.90;99.90;;;;;;4942949;29;20082;-70
2024/01/16 10:58:03;;;;;;;29.83;5.63;;;22.90;99.90;;;;;;4945916;29;20031;-70
2024/01/16 11:00:33;;;;;;;28.35;5.05;;;23.00;99.90;;;;;;4945596;28;20500;-70
2024/01/16 11:03:06;;;;;;;25.05;5.07;;;22.90;99.90;;;;;;4937184;28;20027;-70
2024/01/16 11:05:38;;;;;;;29.05;4.00;;;22.80;99.90;;;;;;4944506;29;20065;-70
2024/01/16 11:08:08;;;;;;;30.90;4.07;;;22.70;99.90;;;;;;4940863;28;20039;-70
2024/01/16 11:10:37;;;;;;;21.45;3.35;;;22.70;99.90;;;;;;4940576;29;20485;-70
2024/01/16 11:13:06;;;;;;;25.67;3.33;;;22.70;99.90;;;;;;4936211;28;20106;-69
2024/01/16 11:15:35;;;;;;;24.52;4.10;;;22.70;99.90;;;;;;4941784;28;20024;-71
2024/01/16 11:18:04;;;;;;;31.67;4.53;;;22.60;99.90;;;;;;4938127;28;20532;-69
2024/01/16 11:20:32;;;;;;;20.02;3.45;;;22.70;99.90;;;;;;4942132;29;20126;-72
2024/01/16 11:23:01;;;;;;;22.30;3.40;;;22.90;99.90;;;;;;4942513;28;20040;-68
2024/01/16 11:25:37;;;;;;;31.92;4.07;;;22.90;99.90;;;;;;4942490;28;20118;-69
2024/01/16 11:28:15;;;;;;;22.75;2.83;;;23.00;99.90;;;;;;4937709;29;20102;-69
2024/01/16 11:30:44;;;;;;;33.45;6.63;;;22.80;99.90;;;;;;4941964;29;20125;-70
2024/01/16 11:33:32;;;;;;;26.95;4.93;;;22.80;99.90;;;;;;4942771;28;20488;-69
2024/01/16 11:36:00;;;;;;;25.85;4.22;;;22.90;99.90;;;;;;4936797;29;20568;-69
2024/01/16 11:38:29;;;;;;;16.98;3.35;;;22.90;99.90;;;;;;4941431;28;20488;-69
2024/01/16 11:40:57;;;;;;;24.48;3.20;;;22.90;99.90;;;;;;4942089;28;20039;-69
2024/01/16 11:43:36;;;;;;;21.75;4.32;;;22.80;99.90;;;;;;4939072;28;20051;-69
2024/01/16 11:46:10;;;;;;;22.15;3.88;;;22.70;99.90;;;;;;4939024;28;20074;-70
2024/01/16 11:48:39;;;;;;;21.88;3.38;;;22.80;99.90;;;;;;4942317;29;20031;-69
2024/01/16 11:51:26;;;;;;;21.52;3.53;;;22.80;99.90;;;;;;4945305;29;20699;-70
2024/01/16 11:53:53;;;;;;;17.00;3.95;;;22.70;99.90;;;;;;4941749;29;20051;-71
2024/01/16 11:56:20;;;;;;;20.67;3.05;;;22.90;99.90;;;;;;4942806;28;20040;-69
2024/01/16 11:59:09;;;;;;;23.27;3.75;;;22.70;99.90;;;;;;4933173;28;20032;-70
2024/01/16 12:01:37;;;;;;;23.40;3.92;;;22.70;99.90;;;;;;4938215;28;20790;-69
2024/01/16 12:04:09;;;;;;;17.63;3.45;;;22.60;99.90;;;;;;4939837;29;20031;-70
2024/01/16 12:06:37;;;;;;;22.27;3.58;;;22.60;99.90;;;;;;4940064;29;20954;-69
2024/01/16 12:09:15;;;;;;;22.88;3.85;;;22.60;99.90;;;;;;4943260;28;20023;-69
2024/01/16 12:11:48;;;;;;;;;;;22.60;99.90;;;;;;4942158;28;20091;-69
2024/01/16 12:14:15;;;;;;;24.48;3.40;;;22.50;99.90;;;;;;4937288;28;20053;-73
2024/01/16 12:16:42;;;;;;;23.85;4.75;;;22.50;99.90;;;;;;4943398;28;20043;-74
2024/01/16 12:19:11;;;;;;;20.15;3.30;;;22.50;99.90;;;;;;4938027;29;20043;-74
2024/01/16 12:21:46;;;;;;;22.33;3.25;;;22.60;99.90;;;;;;4937566;29;20078;-73
2024/01/16 12:24:13;;;;;;;23.98;3.80;;;22.50;99.90;;;;;;4935590;29;20119;-73
2024/01/16 12:26:41;;;;;;;22.60;3.45;;;22.50;99.90;;;;;;4937487;29;20027;-73
2024/01/16 12:29:10;;;;;;;29.20;3.90;;;22.40;99.90;;;;;;4942446;28;20023;-73
2024/01/16 12:31:37;;;;;;;20.00;4.32;;;22.40;99.90;;;;;;4940700;28;20043;-73
2024/01/16 12:34:09;;;;;;;25.33;4.32;;;22.40;99.90;;;;;;4937443;28;20027;-74
2024/01/16 12:36:40;;;;;;;14.82;3.58;;;22.50;99.90;;;;;;4941488;29;20447;-73
2024/01/16 12:39:12;;;;;;;16.10;3.08;;;22.50;99.90;;;;;;4944036;29;20045;-74
2024/01/16 12:41:45;;;;;;;21.20;3.47;;;22.50;99.90;;;;;;4943203;28;20126;-73
2024/01/16 12:44:13;;;;;;;14.68;3.00;;;22.40;99.90;;;;;;4942137;28;20024;-73
2024/01/16 12:47:01;;;;;;;14.40;3.53;;;22.40;99.90;;;;;;4938421;29;20032;-73